Time;durP1;ratioP1;P1;durP2;ratioP2;P2;SDS_P1;SDS_P2;PMS_P1;PMS_P2;Temp;Humidity;BMP_temperature;BMP_pressure;BME280_temperature;BME280_humidity;BME280_pressure;Samples;Min_cycle;Max_cycle;Signal;HPM_P1;HPM_P2
2024/04/25 00:00:26;;;;;;;3.25;0.32;;;2.80;99.90;;;;;;5493542;26;19994;-77
2024/04/25 00:02:52;;;;;;;3.80;0.15;;;2.80;99.90;;;;;;5493713;26;19998;-77
2024/04/25 00:05:19;;;;;;;5.30;0.10;;;2.80;99.90;;;;;;5493392;26;20005;-77
2024/04/25 00:07:45;;;;;;;2.47;0.57;;;2.80;99.90;;;;;;5493537;26;19998;-77
2024/04/25 00:10:10;;;;;;;4.38;0.13;;;2.90;99.90;;;;;;5493923;26;20343;-76
2024/04/25 00:12:36;;;;;;;7.95;0.20;;;4.80;99.90;;;;;;5493668;26;20022;-76
2024/04/25 00:15:03;;;;;;;2.28;0.20;;;3.00;99.90;;;;;;5493507;26;20008;-76
2024/04/25 00:17:29;;;;;;;0.90;0.28;;;3.00;99.90;;;;;;5493555;26;19994;-76
2024/04/25 00:19:55;;;;;;;4.07;0.10;;;3.00;99.90;;;;;;5493886;26;20525;-76
2024/04/25 00:22:20;;;;;;;1.83;0.10;;;3.10;99.90;;;;;;5461037;26;20005;-76
2024/04/25 00:24:46;;;;;;;5.65;0.40;;;3.10;99.90;;;;;;5493534;26;20001;-76
2024/04/25 00:27:13;;;;;;;7.85;0.32;;;3.30;99.90;;;;;;5460571;26;20010;-76
2024/04/25 00:29:38;;;;;;;7.57;0.25;;;3.40;99.90;;;;;;5460025;26;20016;-76
2024/04/25 00:32:05;;;;;;;1.05;0.10;;;3.50;99.90;;;;;;5492642;26;19994;-76
2024/04/25 00:34:31;;;;;;;8.68;0.10;;;3.50;99.90;;;;;;5460684;26;20006;-76
2024/04/25 00:36:56;;;;;;;4.80;0.10;;;3.70;99.90;;;;;;5492999;26;19994;-76
2024/04/25 00:39:22;;;;;;;2.63;0.00;;;3.70;99.90;;;;;;5492051;26;19994;-76
2024/04/25 00:41:48;;;;;;;4.45;0.25;;;3.70;99.90;;;;;;5492189;26;20469;-76
2024/04/25 00:44:14;;;;;;;2.20;0.05;;;3.80;99.90;;;;;;5492065;26;19994;-76
2024/04/25 00:46:41;;;;;;;4.25;0.05;;;3.90;99.90;;;;;;5491222;26;19998;-76
2024/04/25 00:49:09;;;;;;;3.50;0.00;;;5.20;99.90;;;;;;5491951;26;19994;-76
2024/04/25 00:51:36;;;;;;;3.05;0.10;;;3.90;99.90;;;;;;5491859;26;19994;-76
2024/04/25 00:54:03;;;;;;;10.38;0.40;;;3.90;99.90;;;;;;5491641;26;20005;-77
2024/04/25 00:56:29;;;;;;;2.25;0.10;;;3.90;99.90;;;;;;5490918;26;20004;-77
2024/04/25 00:58:57;;;;;;;5.68;0.05;;;3.90;99.90;;;;;;5461198;26;19998;-77
2024/04/25 01:01:24;;;;;;;4.22;0.10;;;3.90;99.90;;;;;;5462000;26;19994;-77
2024/04/25 01:03:51;;;;;;;2.05;0.25;;;3.80;99.90;;;;;;5494092;26;20125;-77
2024/04/25 01:06:20;;;;;;;3.05;0.10;;;3.80;99.90;;;;;;5494398;26;20005;-76
2024/04/25 01:08:47;;;;;;;1.85;0.00;;;3.80;99.90;;;;;;5463199;26;20009;-76
2024/04/25 01:11:13;;;;;;;3.20;0.10;;;3.70;99.90;;;;;;5462727;26;19998;-76
2024/04/25 01:13:39;;;;;;;4.30;0.35;;;3.70;99.90;;;;;;5463805;26;19994;-76
2024/04/25 01:16:07;;;;;;;3.83;0.00;;;3.60;99.90;;;;;;5495838;26;20009;-76
2024/04/25 01:18:33;;;;;;;3.73;0.03;;;3.60;99.90;;;;;;5463003;26;19997;-76
2024/04/25 01:20:59;;;;;;;2.20;0.22;;;3.50;99.90;;;;;;5495053;26;19994;-77
2024/04/25 01:23:30;;;;;;;1.52;0.20;;;3.40;99.90;;;;;;5494481;26;20005;-77
2024/04/25 01:25:56;;;;;;;2.00;0.00;;;3.40;99.90;;;;;;5494922;26;20390;-77
2024/04/25 01:28:23;;;;;;;5.90;0.10;;;3.40;99.90;;;;;;5462570;26;20021;-77
2024/04/25 01:30:49;;;;;;;4.68;0.00;;;3.30;99.90;;;;;;5495412;26;20005;-77
2024/04/25 01:33:18;;;;;;;2.55;0.68;;;3.20;99.90;;;;;;5495225;26;20006;-77
2024/04/25 01:35:45;;;;;;;2.35;0.17;;;3.20;99.90;;;;;;5495557;26;19998;-77
2024/04/25 01:38:11;;;;;;;1.55;0.20;;;3.10;99.90;;;;;;5463282;26;20458;-77
2024/04/25 01:40:37;;;;;;;1.85;0.00;;;3.10;99.90;;;;;;5496238;26;19998;-76
2024/04/25 01:43:03;;;;;;;4.15;0.20;;;3.10;99.90;;;;;;5463615;26;20315;-76
2024/04/25 01:45:29;;;;;;;2.50;0.00;;;3.00;99.90;;;;;;5463373;26;19994;-76
2024/04/25 01:47:55;;;;;;;3.47;0.35;;;3.00;99.90;;;;;;5494683;26;20325;-76
2024/04/25 01:50:20;;;;;;;1.25;0.00;;;3.00;99.90;;;;;;5463538;26;20062;-76
2024/04/25 01:52:46;;;;;;;4.18;0.10;;;2.90;99.90;;;;;;5463373;26;20004;-76
2024/04/25 01:55:12;;;;;;;2.80;0.00;;;3.00;99.90;;;;;;5495357;26;20445;-76
2024/04/25 01:57:37;;;;;;;5.88;0.10;;;2.90;99.90;;;;;;5463476;26;20008;-76
2024/04/25 02:00:04;;;;;;;2.63;0.25;;;2.90;99.90;;;;;;5496024;26;20008;-76
2024/04/25 02:02:29;;;;;;;4.55;0.10;;;2.90;99.90;;;;;;5463067;26;20085;-76
2024/04/25 02:04:55;;;;;;;3.60;0.35;;;2.90;99.90;;;;;;5495207;26;20005;-76
2024/04/25 02:07:21;;;;;;;6.65;1.15;;;2.90;99.90;;;;;;5495234;26;20456;-76
2024/04/25 02:09:47;;;;;;;0.80;0.00;;;2.90;99.90;;;;;;5494286;26;19998;-76
2024/04/25 02:12:14;;;;;;;2.92;0.28;;;2.90;99.90;;;;;;5462668;26;19998;-76
2024/04/25 02:14:39;;;;;;;0.85;0.00;;;3.30;99.90;;;;;;5463303;26;19994;-76
2024/04/25 02:17:05;;;;;;;1.02;0.00;;;3.10;99.90;;;;;;5496100;26;20009;-76
2024/04/25 02:19:30;;;;;;;3.95;0.00;;;3.80;99.90;;;;;;5462595;26;19994;-76
2024/04/25 02:27:24;;;;;;;3.25;0.00;;;3.20;99.90;;;;;;5496934;26;20009;-77
2024/04/25 02:29:50;;;;;;;2.70;0.10;;;3.20;99.90;;;;;;5462723;26;20001;-77
2024/04/25 02:32:16;;;;;;;2.22;0.15;;;3.10;99.90;;;;;;5495045;26;20022;-77
2024/04/25 02:34:42;;;;;;;3.33;0.10;;;3.10;99.90;;;;;;5463223;26;19994;-77
2024/04/25 02:37:08;;;;;;;2.00;0.20;;;3.20;99.90;;;;;;5495131;26;19994;-79
2024/04/25 02:39:33;;;;;;;2.05;0.05;;;3.20;99.90;;;;;;5462935;26;19998;-77
2024/04/25 02:41:59;;;;;;;2.60;0.00;;;3.20;99.90;;;;;;5494463;26;20473;-76
2024/04/25 02:44:25;;;;;;;0.57;0.00;;;3.20;99.90;;;;;;5462314;26;20009;-76
2024/04/25 02:46:51;;;;;;;7.07;0.17;;;3.30;99.90;;;;;;5494083;26;19994;-76
2024/04/25 02:49:16;;;;;;;4.57;0.22;;;3.40;99.90;;;;;;5494710;26;20070;-78
2024/04/25 02:51:42;;;;;;;4.15;0.17;;;4.20;99.90;;;;;;5462552;26;19994;-78
2024/04/25 02:54:11;;;;;;;4.13;0.15;;;3.50;99.90;;;;;;5462840;26;19986;-78
2024/04/25 02:56:36;;;;;;;0.43;0.00;;;3.50;99.90;;;;;;5462820;26;20002;-78
2024/04/25 02:59:02;;;;;;;3.70;0.10;;;3.50;99.90;;;;;;5495004;26;20407;-78
2024/04/25 03:01:28;;;;;;;0.95;0.00;;;3.50;99.90;;;;;;5494217;26;20034;-78
2024/04/25 03:03:54;;;;;;;5.20;0.30;;;3.60;99.90;;;;;;5494358;26;20059;-78
2024/04/25 03:06:21;;;;;;;3.97;0.68;;;3.70;99.90;;;;;;5495554;26;19995;-78
2024/04/25 03:08:47;;;;;;;2.90;0.25;;;3.60;99.90;;;;;;5493973;26;20018;-78
2024/04/25 03:11:13;;;;;;;1.00;0.00;;;4.80;99.90;;;;;;5493228;26;20326;-78
2024/04/25 03:13:39;;;;;;;3.00;0.15;;;3.60;99.90;;;;;;5493216;26;19994;-78
2024/04/25 03:16:05;;;;;;;1.92;0.00;;;3.60;99.90;;;;;;5493425;26;19994;-78
2024/04/25 03:18:31;;;;;;;6.03;0.20;;;;;;;;;;5493584;26;20357;-78
2024/04/25 03:21:04;;;;;;;4.50;0.00;;;3.60;99.90;;;;;;5460722;26;20336;-78
2024/04/25 03:23:31;;;;;;;4.68;0.15;;;;;;;;;;5493249;26;19998;-78
2024/04/25 03:25:56;;;;;;;2.45;0.30;;;3.50;99.90;;;;;;5461316;26;20021;-78
2024/04/25 03:28:22;;;;;;;5.70;0.10;;;3.50;99.90;;;;;;5493428;26;19998;-78
2024/04/25 03:30:48;;;;;;;6.15;0.25;;;3.40;99.90;;;;;;5492836;26;20005;-79
2024/04/25 03:33:13;;;;;;;1.75;0.03;;;3.40;99.90;;;;;;5461534;26;19998;-78
2024/04/25 03:35:40;;;;;;;2.50;0.65;;;3.40;99.90;;;;;;5493629;26;20043;-78
2024/04/25 03:38:06;;;;;;;6.35;0.20;;;3.30;99.90;;;;;;5460823;26;20005;-78
2024/04/25 03:40:38;;;;;;;5.85;0.00;;;3.30;99.90;;;;;;5460271;26;20005;-78
2024/04/25 03:43:05;;;;;;;5.35;0.17;;;3.30;99.90;;;;;;5460118;26;20009;-78
2024/04/25 03:45:30;;;;;;;3.72;0.00;;;3.30;99.90;;;;;;5493016;26;20429;-78
2024/04/25 03:47:56;;;;;;;5.15;0.22;;;;;;;;;;5492648;26;20005;-78
2024/04/25 03:50:23;;;;;;;3.90;0.30;;;3.20;99.90;;;;;;5492449;26;20004;-78
2024/04/25 03:52:49;;;;;;;1.63;0.32;;;3.80;99.90;;;;;;5460160;26;20020;-78
2024/04/25 03:55:15;;;;;;;7.15;0.43;;;3.30;99.90;;;;;;5461039;26;19994;-78
2024/04/25 03:57:41;;;;;;;0.65;0.00;;;3.30;99.90;;;;;;5493124;26;20040;-78
2024/04/25 04:00:11;;;;;;;3.80;0.20;;;3.30;99.90;;;;;;5491914;26;19998;-78
2024/04/25 04:02:37;;;;;;;3.38;0.25;;;3.40;99.90;;;;;;5491995;26;20457;-78
2024/04/25 04:05:03;;;;;;;1.45;0.00;;;3.40;99.90;;;;;;5460247;26;20005;-78
2024/04/25 04:07:29;;;;;;;2.88;0.00;;;3.40;99.90;;;;;;5492337;26;20009;-78
2024/04/25 04:09:56;;;;;;;0.75;0.00;;;3.40;99.90;;;;;;5492254;26;20372;-78
2024/04/25 04:12:22;;;;;;;0.43;0.00;;;;;;;;;;5460358;26;20001;-78
2024/04/25 04:14:48;;;;;;;1.20;0.00;;;3.50;99.90;;;;;;5459736;26;19994;-78
2024/04/25 04:17:13;;;;;;;2.08;0.08;;;4.20;99.90;;;;;;5492076;26;20009;-78
2024/04/25 04:19:39;;;;;;;1.38;0.22;;;3.50;99.90;;;;;;5491980;26;20004;-78
2024/04/25 04:22:05;;;;;;;5.25;0.10;;;3.50;99.90;;;;;;5491870;26;20469;-78
2024/04/25 04:24:30;;;;;;;1.70;0.50;;;3.60;99.90;;;;;;5492791;26;20076;-78
2024/04/25 04:26:56;;;;;;;4.05;0.55;;;3.70;99.90;;;;;;5492994;26;20002;-78
2024/04/25 04:29:22;;;;;;;2.53;0.40;;;3.70;99.90;;;;;;5492460;26;20002;-78
2024/04/25 04:31:48;;;;;;;2.97;0.10;;;3.70;99.90;;;;;;5492184;26;19995;-78
2024/04/25 04:34:14;;;;;;;3.80;0.63;;;3.80;99.90;;;;;;5495319;26;20013;-78
2024/04/25 04:36:40;;;;;;;2.92;0.22;;;3.80;99.90;;;;;;5495477;26;19994;-78
2024/04/25 04:39:06;;;;;;;5.32;0.00;;;4.20;99.90;;;;;;5494404;26;20006;-78
2024/04/25 04:41:32;;;;;;;2.03;0.05;;;3.80;99.90;;;;;;5463641;26;20514;-78
2024/04/25 04:43:58;;;;;;;4.60;0.70;;;3.90;99.90;;;;;;5463792;26;20012;-78
2024/04/25 04:46:24;;;;;;;3.83;0.10;;;3.90;99.90;;;;;;5495211;26;20066;-78
2024/04/25 04:48:50;;;;;;;4.25;0.20;;;3.90;99.90;;;;;;5495141;26;20445;-78
2024/04/25 04:51:18;;;;;;;3.47;0.00;;;3.90;99.90;;;;;;5463393;26;19998;-78
2024/04/25 04:53:44;;;;;;;3.30;0.00;;;4.00;99.90;;;;;;5495937;26;20030;-78
2024/04/25 04:56:10;;;;;;;2.95;0.30;;;4.00;99.90;;;;;;5496104;26;20009;-78
2024/04/25 04:58:36;;;;;;;3.05;0.10;;;6.60;99.90;;;;;;5496193;26;20009;-78
2024/04/25 05:01:01;;;;;;;3.17;0.00;;;4.10;99.90;;;;;;5496989;26;20062;-78
2024/04/25 05:03:27;;;;;;;5.20;0.10;;;4.20;99.90;;;;;;5464418;26;19994;-78
2024/04/25 05:05:53;;;;;;;5.97;0.10;;;4.20;99.90;;;;;;5495759;26;20454;-78
2024/04/25 05:08:18;;;;;;;4.45;0.40;;;4.30;99.90;;;;;;5462849;26;19995;-78
2024/04/25 05:10:44;;;;;;;4.60;0.52;;;4.30;99.90;;;;;;5463823;26;19994;-78
2024/04/25 05:13:11;;;;;;;1.52;0.10;;;4.40;99.90;;;;;;5494535;26;20005;-78
2024/04/25 05:15:37;;;;;;;5.85;0.57;;;4.50;99.90;;;;;;5462405;26;19994;-78
2024/04/25 05:18:03;;;;;;;3.20;0.00;;;4.50;99.90;;;;;;5495749;26;20000;-79
2024/04/25 05:20:29;;;;;;;3.95;0.10;;;4.50;99.90;;;;;;5496426;26;20027;-78
2024/04/25 05:22:56;;;;;;;4.10;0.45;;;4.60;99.90;;;;;;5463472;26;20361;-78
2024/04/25 05:25:21;;;;;;;3.58;0.00;;;4.60;99.90;;;;;;5463604;26;19994;-78
2024/04/25 05:27:47;;;;;;;1.60;0.00;;;4.60;99.90;;;;;;5495089;26;20009;-78
2024/04/25 05:30:15;;;;;;;3.70;0.10;;;4.70;99.90;;;;;;5494537;26;20040;-78
2024/04/25 05:32:40;;;;;;;6.20;0.55;;;4.70;99.90;;;;;;5463281;26;20005;-78
2024/04/25 05:35:06;;;;;;;0.88;0.08;;;4.80;99.90;;;;;;5461162;26;19994;-78
2024/04/25 05:37:32;;;;;;;3.70;0.20;;;4.90;99.90;;;;;;5460875;26;19994;-78
2024/04/25 05:39:58;;;;;;;6.05;0.80;;;4.90;99.90;;;;;;5461575;26;19999;-78
2024/04/25 05:42:23;;;;;;;1.92;0.10;;;5.10;99.90;;;;;;5494122;26;20008;-78
2024/04/25 05:44:52;;;;;;;2.03;0.05;;;5.20;99.90;;;;;;5492722;26;20040;-78
2024/04/25 05:47:18;;;;;;;6.43;0.10;;;5.20;99.90;;;;;;5493563;26;19994;-78
2024/04/25 05:49:45;;;;;;;6.55;0.25;;;5.20;99.90;;;;;;5495300;26;20006;-78
2024/04/25 05:52:14;;;;;;;2.92;0.10;;;5.30;99.90;;;;;;5493519;26;19994;-79
2024/04/25 05:54:40;;;;;;;3.00;0.47;;;;;;;;;;5463779;26;20071;-80
2024/04/25 05:57:06;;;;;;;5.25;0.50;;;5.40;99.90;;;;;;5494020;26;20415;-77
2024/04/25 05:59:32;;;;;;;4.60;0.05;;;5.40;99.90;;;;;;5460465;26;20018;-76
2024/04/25 06:02:00;;;;;;;2.83;0.00;;;5.50;99.90;;;;;;5492292;26;19994;-76
2024/04/25 06:04:33;;;;;;;0.77;0.00;;;5.50;99.90;;;;;;5459962;26;19994;-77
2024/04/25 06:06:59;;;;;;;6.07;0.63;;;;;;;;;;5460170;26;20026;-76
2024/04/25 06:09:25;;;;;;;3.15;0.28;;;5.70;99.90;;;;;;5492630;26;20445;-76
2024/04/25 06:11:51;;;;;;;6.10;0.38;;;6.20;99.90;;;;;;5492590;26;20012;-76
2024/04/25 06:14:17;;;;;;;2.67;0.17;;;5.80;99.90;;;;;;5460539;26;20030;-76
2024/04/25 06:16:42;;;;;;;3.65;0.20;;;5.90;99.90;;;;;;5492388;26;20448;-76
2024/04/25 06:19:08;;;;;;;6.80;0.52;;;6.10;99.90;;;;;;5460502;26;20006;-76
2024/04/25 06:21:34;;;;;;;3.70;0.40;;;6.10;99.90;;;;;;5460037;26;20489;-76
2024/04/25 06:24:02;;;;;;;1.20;0.65;;;6.20;99.90;;;;;;5460472;26;19994;-76
2024/04/25 06:26:28;;;;;;;2.72;0.15;;;6.20;99.90;;;;;;5492079;26;19994;-76
2024/04/25 06:28:54;;;;;;;1.98;0.05;;;6.20;99.90;;;;;;5459532;26;19990;-76
2024/04/25 06:31:20;;;;;;;1.17;0.00;;;6.30;99.90;;;;;;5491799;26;20506;-76
2024/04/25 06:33:46;;;;;;;2.92;0.15;;;6.40;99.90;;;;;;5492202;26;20005;-78
2024/04/25 06:36:13;;;;;;;5.53;0.17;;;6.50;99.90;;;;;;5492004;26;20009;-78
2024/04/25 06:38:39;;;;;;;4.85;0.20;;;6.60;99.90;;;;;;5459733;26;20002;-78
2024/04/25 06:41:05;;;;;;;0.30;0.00;;;6.70;99.90;;;;;;5460121;26;20009;-78
2024/04/25 06:43:30;;;;;;;3.13;0.10;;;6.70;99.90;;;;;;5492020;26;19994;-78
2024/04/25 06:45:56;;;;;;;4.88;0.30;;;6.80;99.90;;;;;;5492017;26;20070;-79
2024/04/25 06:48:22;;;;;;;5.22;0.52;;;7.10;99.90;;;;;;5492048;26;20343;-78
2024/04/25 06:50:47;;;;;;;4.32;0.30;;;7.10;99.90;;;;;;5459365;26;20002;-78
2024/04/25 06:53:13;;;;;;;2.70;0.00;;;7.30;99.90;;;;;;5495205;26;19994;-79
2024/04/25 06:55:43;;;;;;;3.78;0.35;;;8.00;99.90;;;;;;5496113;26;20013;-78
2024/04/25 06:58:13;;;;;;;;;;;7.30;99.90;;;;;;5462016;26;19990;-78
2024/04/25 07:00:39;;;;;;;2.83;0.10;;;7.30;99.90;;;;;;5492114;26;19931;-78
2024/04/25 07:03:05;;;;;;;1.02;0.05;;;7.50;99.90;;;;;;5459827;26;19996;-79
2024/04/25 07:05:31;;;;;;;5.32;0.22;;;7.50;99.90;;;;;;5460534;26;20006;-78
2024/04/25 07:07:56;;;;;;;8.35;0.65;;;8.10;99.90;;;;;;5460135;26;20021;-77
2024/04/25 07:10:25;;;;;;;4.47;0.00;;;7.50;99.90;;;;;;5460299;26;19994;-79
2024/04/25 07:12:50;;;;;;;4.28;0.20;;;7.50;99.90;;;;;;5461265;26;19998;-77
2024/04/25 07:15:20;;;;;;;1.70;0.05;;;7.60;99.90;;;;;;5492120;26;19998;-78
2024/04/25 07:17:46;;;;;;;2.75;0.03;;;7.70;99.90;;;;;;5461609;26;20406;-79
2024/04/25 07:20:11;;;;;;;3.85;0.10;;;8.40;99.90;;;;;;5496509;26;20005;-80
2024/04/25 07:22:37;;;;;;;5.03;0.50;;;8.30;99.90;;;;;;5465353;26;20464;-80
2024/04/25 07:25:04;;;;;;;4.03;0.47;;;8.10;99.90;;;;;;5495694;26;20005;-79
2024/04/25 07:27:32;;;;;;;4.32;0.38;;;8.10;99.90;;;;;;5494356;26;19995;-80
2024/04/25 07:29:57;;;;;;;1.98;0.00;;;8.10;99.90;;;;;;5495455;26;20060;-80
2024/04/25 07:32:23;;;;;;;2.85;0.15;;;8.10;99.90;;;;;;5464342;26;20006;-79
2024/04/25 07:34:49;;;;;;;2.75;0.15;;;8.10;99.90;;;;;;5464662;26;19994;-80
2024/04/25 07:37:15;;;;;;;2.90;0.00;;;8.30;99.90;;;;;;5463149;26;20022;-79
2024/04/25 07:39:41;;;;;;;2.80;0.25;;;8.30;99.90;;;;;;5463205;26;19995;-80
2024/04/25 07:42:09;;;;;;;2.72;0.00;;;8.40;99.90;;;;;;5463074;26;19990;-80
2024/04/25 07:44:35;;;;;;;4.57;0.05;;;8.60;99.90;;;;;;5464221;26;20005;-80
2024/04/25 07:47:04;;;;;;;1.70;0.00;;;8.60;99.90;;;;;;5463807;26;19994;-79
2024/04/25 07:49:29;;;;;;;2.15;0.35;;;8.60;99.90;;;;;;5496117;26;20009;-80
2024/04/25 07:51:55;;;;;;;3.22;0.03;;;8.60;99.90;;;;;;5495934;26;19998;-80
2024/04/25 07:54:20;;;;;;;3.42;0.40;;;10.00;99.90;;;;;;5496586;26;19994;-80
2024/04/25 07:56:46;;;;;;;4.93;0.47;;;8.30;99.90;;;;;;5464758;26;20002;-80
2024/04/25 07:59:12;;;;;;;9.02;0.20;;;8.20;99.90;;;;;;5463798;26;20013;-80
2024/04/25 08:01:37;;;;;;;2.42;0.00;;;8.30;99.90;;;;;;5464264;26;20000;-80
2024/04/25 08:04:04;;;;;;;6.32;0.45;;;8.20;99.90;;;;;;5496087;26;20013;-80
2024/04/25 08:06:32;;;;;;;2.30;0.00;;;8.30;99.90;;;;;;5495155;26;19998;-80
2024/04/25 08:08:57;;;;;;;3.53;0.10;;;8.30;99.90;;;;;;5499015;26;20333;-79
2024/04/25 08:11:23;;;;;;;2.85;0.00;;;10.30;99.90;;;;;;5499734;26;19998;-80
2024/04/25 08:13:49;;;;;;;3.05;0.32;;;8.30;99.90;;;;;;5499585;26;20009;-80
2024/04/25 08:16:14;;;;;;;2.97;0.15;;;8.30;99.90;;;;;;5500112;26;20009;-79
2024/04/25 08:18:40;;;;;;;2.90;0.00;;;8.10;99.90;;;;;;5465683;26;20084;-79
2024/04/25 08:21:06;;;;;;;2.00;0.00;;;8.00;99.90;;;;;;5494756;26;19994;-78
2024/04/25 08:23:32;;;;;;;1.70;0.10;;;7.90;99.90;;;;;;5495002;26;20464;-79
2024/04/25 08:25:59;;;;;;;2.65;0.65;;;7.90;99.90;;;;;;5494804;26;19990;-79
2024/04/25 08:28:25;;;;;;;1.42;0.00;;;7.90;99.90;;;;;;5495146;26;20010;-78
2024/04/25 08:30:50;;;;;;;2.15;0.00;;;7.90;99.90;;;;;;5495035;26;19998;-78
2024/04/25 08:33:16;;;;;;;2.55;0.68;;;8.10;99.90;;;;;;5494983;26;20334;-79
2024/04/25 08:35:42;;;;;;;3.25;0.00;;;8.00;99.90;;;;;;5494757;26;20325;-78
2024/04/25 08:38:07;;;;;;;1.52;0.32;;;8.00;99.90;;;;;;5461910;26;20000;-78
2024/04/25 08:40:33;;;;;;;0.25;0.00;;;8.00;99.90;;;;;;5493830;26;20032;-78
2024/04/25 08:43:01;;;;;;;5.90;0.00;;;8.10;99.90;;;;;;5493321;26;20002;-76
2024/04/25 08:45:27;;;;;;;0.25;0.00;;;8.20;99.90;;;;;;5492826;26;20070;-76
2024/04/25 08:47:55;;;;;;;5.28;0.03;;;8.30;99.90;;;;;;5492970;26;20005;-76
2024/04/25 08:50:21;;;;;;;1.95;0.00;;;8.40;99.90;;;;;;5493054;26;20095;-76
2024/04/25 08:52:48;;;;;;;2.20;0.00;;;8.60;99.90;;;;;;5492776;26;20002;-76
2024/04/25 08:55:15;;;;;;;1.73;0.22;;;8.80;99.90;;;;;;5492805;26;20005;-76
2024/04/25 08:57:41;;;;;;;1.48;0.10;;;8.90;99.90;;;;;;5492748;26;20009;-76
2024/04/25 09:00:06;;;;;;;3.03;0.00;;;8.90;99.90;;;;;;5492937;26;19994;-76
2024/04/25 09:02:35;;;;;;;1.70;0.00;;;8.70;99.90;;;;;;5460416;26;20036;-76
2024/04/25 09:05:02;;;;;;;0.55;0.03;;;8.80;99.90;;;;;;5493069;26;19998;-76
2024/04/25 09:07:28;;;;;;;1.48;0.00;;;8.60;99.90;;;;;;5460750;26;19998;-77
2024/04/25 09:09:57;;;;;;;2.80;0.00;;;8.50;99.90;;;;;;5493065;26;20009;-77
2024/04/25 09:12:27;;;;;;;0.73;0.00;;;8.40;99.90;;;;;;5493203;26;19998;-76
2024/04/25 09:14:53;;;;;;;1.02;0.00;;;8.20;99.90;;;;;;5493235;26;20005;-76
2024/04/25 09:17:18;;;;;;;1.92;0.00;;;7.90;99.90;;;;;;5492870;26;20342;-77
2024/04/25 09:19:44;;;;;;;1.10;0.10;;;7.80;99.90;;;;;;5492873;26;20005;-76
2024/04/25 09:22:10;;;;;;;3.03;0.25;;;9.20;99.90;;;;;;5493499;26;20013;-76
2024/04/25 09:24:36;;;;;;;0.52;0.00;;;7.60;99.90;;;;;;5492922;26;20012;-76
2024/04/25 09:27:02;;;;;;;2.15;0.50;;;7.50;99.90;;;;;;5493745;26;20429;-76
2024/04/25 09:29:30;;;;;;;2.45;0.10;;;7.40;99.90;;;;;;5460616;26;19994;-76
2024/04/25 09:31:56;;;;;;;1.47;0.47;;;7.50;99.90;;;;;;5492562;26;20463;-76
2024/04/25 09:34:22;;;;;;;1.95;0.20;;;9.10;99.90;;;;;;5492700;26;19998;-76
2024/04/25 09:36:48;;;;;;;0.77;0.00;;;7.90;99.90;;;;;;5460045;26;20507;-75
2024/04/25 09:39:14;;;;;;;2.55;0.57;;;8.00;99.90;;;;;;5459911;26;19994;-76
2024/04/25 09:41:41;;;;;;;3.63;0.00;;;8.10;99.90;;;;;;5459962;26;19994;-76
2024/04/25 09:44:07;;;;;;;1.20;0.00;;;8.20;99.90;;;;;;5491918;26;20070;-76
2024/04/25 09:46:39;;;;;;;5.43;0.77;;;8.20;99.90;;;;;;5460076;26;20061;-76
2024/04/25 09:49:06;;;;;;;2.05;0.05;;;8.30;99.90;;;;;;5492003;26;20100;-76
2024/04/25 09:51:37;;;;;;;3.03;0.30;;;8.20;99.90;;;;;;5460124;26;19994;-76
2024/04/25 09:54:19;;;;;;;3.05;0.20;;;8.10;99.90;;;;;;5460263;26;20015;-76
2024/04/25 09:56:49;;;;;;;2.30;0.60;;;7.90;99.90;;;;;;5492748;26;20005;-76
2024/04/25 09:59:38;;;;;;;3.83;0.35;;;7.90;99.90;;;;;;5459674;26;20066;-76
2024/04/25 10:02:04;;;;;;;;;;;7.80;99.90;;;;;;5441572;26;19991;-76
2024/04/25 10:04:34;;;;;;;0.52;0.08;;;7.90;99.90;;;;;;5489928;26;19924;-76
2024/04/25 10:07:01;;;;;;;4.78;0.35;;;7.90;99.90;;;;;;5492293;26;20005;-76
2024/04/25 10:09:27;;;;;;;1.58;0.20;;;7.90;99.90;;;;;;5491502;26;19998;-76
2024/04/25 10:11:57;;;;;;;3.95;0.17;;;7.90;99.90;;;;;;5459774;26;20005;-76
2024/04/25 10:14:24;;;;;;;2.33;0.10;;;8.90;99.90;;;;;;5492054;26;20446;-76
2024/04/25 10:16:51;;;;;;;4.43;0.20;;;7.80;99.90;;;;;;5459631;26;20009;-76
2024/04/25 10:19:17;;;;;;;2.83;0.10;;;7.70;99.90;;;;;;5491939;26;20346;-76
2024/04/25 10:21:46;;;;;;;1.73;0.20;;;7.70;99.90;;;;;;5459917;26;20018;-77
2024/04/25 10:24:15;;;;;;;2.35;0.03;;;7.70;99.90;;;;;;5492165;26;20006;-76
2024/04/25 10:26:46;;;;;;;3.70;0.52;;;7.50;99.90;;;;;;5491755;26;19998;-76
2024/04/25 10:29:12;;;;;;;1.15;0.10;;;7.50;99.90;;;;;;5460276;26;20022;-77
2024/04/25 10:31:41;;;;;;;2.30;0.13;;;7.50;99.90;;;;;;5459006;26;20062;-77
2024/04/25 10:34:09;;;;;;;1.60;0.20;;;7.50;99.90;;;;;;5491780;26;20022;-77
2024/04/25 10:36:35;;;;;;;1.25;0.50;;;7.30;99.90;;;;;;5459639;26;19998;-76
2024/04/25 10:39:02;;;;;;;1.98;0.30;;;7.30;99.90;;;;;;5491821;26;20062;-76
2024/04/25 10:41:38;;;;;;;4.78;0.10;;;7.20;99.90;;;;;;5459719;26;20282;-76
2024/04/25 10:44:13;;;;;;;3.50;0.20;;;7.20;99.90;;;;;;5491971;26;20012;-76
2024/04/25 10:46:39;;;;;;;4.70;0.20;;;7.30;99.90;;;;;;5459344;26;19997;-76
2024/04/25 10:49:05;;;;;;;1.65;0.10;;;7.30;99.90;;;;;;5490959;26;19994;-76
2024/04/25 10:51:32;;;;;;;3.80;0.28;;;7.40;99.90;;;;;;5458704;26;20002;-76
2024/04/25 10:53:58;;;;;;;2.17;0.17;;;7.40;99.90;;;;;;5490934;26;19998;-76
2024/04/25 10:56:24;;;;;;;3.80;0.32;;;7.50;99.90;;;;;;5459140;26;20000;-76
2024/04/25 10:58:55;;;;;;;8.05;0.17;;;7.60;99.90;;;;;;5459060;26;20323;-76
2024/04/25 11:01:25;;;;;;;4.63;0.17;;;7.60;99.90;;;;;;5491776;26;20473;-76
2024/04/25 11:03:57;;;;;;;4.63;0.40;;;7.70;99.90;;;;;;5459036;26;19998;-76
2024/04/25 11:06:25;;;;;;;2.05;0.30;;;7.70;99.90;;;;;;5491825;26;19994;-76
2024/04/25 11:08:51;;;;;;;5.53;0.63;;;8.00;99.90;;;;;;5491219;26;20022;-77
2024/04/25 11:11:17;;;;;;;6.70;0.98;;;8.10;99.90;;;;;;5491229;26;20368;-76
2024/04/25 11:13:42;;;;;;;6.82;0.43;;;8.10;99.90;;;;;;5459005;26;19990;-76
2024/04/25 11:16:08;;;;;;;6.07;0.00;;;8.10;99.90;;;;;;5491470;26;20477;-76
2024/04/25 11:18:35;;;;;;;3.42;0.30;;;8.50;99.90;;;;;;5458432;26;19994;-76
2024/04/25 11:21:02;;;;;;;1.38;0.10;;;9.00;99.90;;;;;;5458415;26;20006;-76
2024/04/25 11:23:30;;;;;;;5.18;0.52;;;8.70;99.90;;;;;;5490617;26;20473;-76
2024/04/25 11:25:59;;;;;;;2.28;0.95;;;9.00;99.90;;;;;;5491299;26;19998;-76
2024/04/25 11:28:25;;;;;;;1.45;0.00;;;9.30;99.90;;;;;;5458637;26;20001;-77
2024/04/25 11:30:51;;;;;;;5.53;0.30;;;9.90;99.90;;;;;;5491032;26;19998;-76
2024/04/25 11:33:21;;;;;;;2.58;0.10;;;10.30;99.90;;;;;;5490836;26;20005;-77
2024/04/25 11:35:47;;;;;;;6.35;0.20;;;10.30;99.90;;;;;;5458426;26;19998;-76
2024/04/25 11:38:15;;;;;;;2.45;0.25;;;10.50;99.90;;;;;;5490854;26;20078;-76
2024/04/25 11:40:41;;;;;;;2.17;0.35;;;10.60;99.90;;;;;;5490347;26;20030;-76
2024/04/25 11:43:07;;;;;;;6.07;0.30;;;10.60;99.90;;;;;;5457856;26;20006;-76
2024/04/25 11:45:33;;;;;;;2.15;0.57;;;10.70;99.90;;;;;;5490373;26;20067;-76
2024/04/25 11:47:59;;;;;;;4.95;0.45;;;10.70;99.90;;;;;;5490319;26;19998;-76
2024/04/25 11:50:25;;;;;;;1.35;0.15;;;10.90;99.90;;;;;;5490066;26;19998;-76
2024/04/25 11:52:50;;;;;;;4.38;0.10;;;11.20;99.90;;;;;;5490101;26;19994;-76
2024/04/25 11:55:16;;;;;;;3.03;0.05;;;11.40;99.90;;;;;;5490324;26;19994;-77
2024/04/25 11:57:41;;;;;;;2.20;0.10;;;11.30;99.90;;;;;;5457786;26;19995;-76
2024/04/25 12:00:07;;;;;;;4.82;0.77;;;11.30;99.90;;;;;;5490220;26;20453;-77
2024/04/25 12:02:33;;;;;;;2.17;0.00;;;11.30;99.90;;;;;;5490269;26;20005;-76
2024/04/25 12:04:59;;;;;;;2.60;0.00;;;11.30;99.90;;;;;;5457908;26;19998;-76
2024/04/25 12:07:24;;;;;;;4.22;0.22;;;11.40;99.90;;;;;;5490420;26;19994;-76
2024/04/25 12:09:50;;;;;;;1.15;0.43;;;11.50;99.90;;;;;;5490433;26;19994;-77
2024/04/25 12:12:16;;;;;;;2.15;0.10;;;11.60;99.90;;;;;;5457685;26;19994;-75
2024/04/25 12:14:41;;;;;;;7.63;1.13;;;11.70;99.90;;;;;;5489872;26;20461;-76
2024/04/25 12:17:07;;;;;;;2.38;0.15;;;11.80;99.90;;;;;;5489806;26;19995;-76
2024/04/25 12:19:33;;;;;;;1.75;0.20;;;11.80;99.90;;;;;;5490094;26;20450;-76
2024/04/25 12:21:59;;;;;;;2.17;0.17;;;11.50;99.90;;;;;;5457870;26;20030;-76
2024/04/25 12:24:25;;;;;;;5.45;0.10;;;11.50;99.90;;;;;;5457810;26;19994;-76
2024/04/25 12:26:50;;;;;;;1.00;0.15;;;11.80;99.90;;;;;;5489688;26;20458;-76
2024/04/25 12:29:16;;;;;;;5.20;0.45;;;11.80;99.90;;;;;;5457798;26;19998;-76
2024/04/25 12:31:42;;;;;;;0.77;0.17;;;11.90;99.90;;;;;;5490574;26;20010;-77
2024/04/25 12:34:09;;;;;;;3.90;0.10;;;12.20;99.90;;;;;;5490315;26;19998;-77
2024/04/25 12:36:35;;;;;;;1.35;0.05;;;12.50;99.90;;;;;;5489885;26;20002;-76
2024/04/25 12:39:01;;;;;;;4.55;0.22;;;12.60;99.90;;;;;;5489587;26;20010;-77
2024/04/25 12:41:27;;;;;;;5.68;0.75;;;12.70;99.60;;;;;;5489621;26;19994;-76
2024/04/25 12:43:55;;;;;;;0.75;0.10;;;12.70;99.50;;;;;;5489379;26;20031;-76
2024/04/25 12:46:21;;;;;;;1.20;0.20;;;;;;;;;;5489822;26;20039;-77
2024/04/25 12:48:47;;;;;;;0.90;0.13;;;12.90;99.50;;;;;;5488975;26;19998;-77
2024/04/25 12:51:12;;;;;;;3.58;0.10;;;13.10;99.90;;;;;;5489072;26;19998;-74
2024/04/25 12:53:40;;;;;;;3.40;0.70;;;12.90;97.60;;;;;;5489525;26;20485;-76
2024/04/25 12:56:06;;;;;;;2.40;0.15;;;13.00;99.90;;;;;;5460892;26;19994;-76
2024/04/25 12:58:33;;;;;;;1.10;0.22;;;13.20;98.00;;;;;;5493144;26;20011;-75